Flight Track Log - Related Links

Times and Time Zones

All times are in EDT time to prevent confusion due to time zone crossing. See the UAL1177 flight status page for this flight to view local times or setup timezone preferences in your user account.

Time Position Orientation Groundspeed Altitude Reporting Facility
EDT Latitude Longitude Course Direction KTS MPH feet Rate Location/Type
Mon 03:38:24 PM 37.6500 -122.3500 58° Northeast 169 194 1,400  Level Northern Cal TRACON
Mon 03:39:24 PM 37.6833 -122.2833 58° Northeast 230 265 4,000 2,872 Climbing Northern Cal TRACON
Mon 03:39:58 PM 37.7086 -122.2536 43° Northeast 249 287 5,900 3,537 Climbing Oakland Center
Mon 03:40:59 PM 37.7464 -122.1706 60° Northeast 273 314 9,600 3,098 Climbing Oakland Center
Mon 03:42:00 PM 37.7172 -122.0565 70° East  Level FlightAware Approximate
Mon 03:42:00 PM 37.7753 -122.0664 71° East 307 353 12,200  Level Oakland Center
Mon 03:43:00 PM 37.7696 -121.8941 58° Northeast  Level FlightAware Approximate
Mon 03:43:02 PM 37.8081 -121.9514 70° East 343 395 15,400  Level Oakland Center
Mon 03:44:03 PM 37.8419 -121.8319 70° East 360 414 18,300 3,000 Climbing Oakland Center
Mon 03:45:04 PM 37.8853 -121.6792 70° East 384 442 21,500 2,585 Climbing Oakland Center
Mon 03:46:06 PM 37.9228 -121.5453 70° East 403 464 23,600 2,000 Climbing Oakland Center
Mon 03:47:07 PM 37.9597 -121.4161 70° East 418 481 25,600 2,016 Climbing Oakland Center
Mon 03:48:08 PM 37.9997 -121.2711 71° East 434 499 27,700 2,016 Climbing Oakland Center
Mon 03:49:09 PM 38.0406 -121.1242 71° East 443 510 29,700 1,951 Climbing Oakland Center
Mon 03:50:11 PM 38.0842 -120.9419 73° East 453 521 31,700 1,756 Climbing Oakland Center
Mon 03:51:12 PM 38.1042 -120.7828 81° East 460 529 33,300 1,574 Climbing Oakland Center
Mon 03:52:13 PM 38.1258 -120.6228 80° East 462 532 34,900 1,415 Climbing Oakland Center
Mon 03:53:15 PM 38.1478 -120.4617 80° East 465 535 36,200 1,268 Climbing Oakland Center
Mon 03:54:16 PM 38.1686 -120.2997 81° East 465 535 37,500 1,180 Climbing Oakland Center
Mon 03:55:17 PM 38.1897 -120.1389 80° East 463 533 38,600 738 Climbing Oakland Center
Mon 03:56:18 PM 38.2139 -119.9781 79° East 464 534 39,000 195 Climbing Oakland Center
Mon 03:57:20 PM 38.2300 -119.8158 83° East 465 535 39,000  Level Oakland Center
Mon 03:58:21 PM 38.2544 -119.6233 81° East 461 531 39,000  Level Oakland Center
Mon 03:59:22 PM 38.2747 -119.4617 81° East 463 533 39,000  Level Oakland Center
Mon 04:00:23 PM 38.2939 -119.3028 81° East 462 532 39,000  Level Oakland Center
Mon 04:01:25 PM 38.3136 -119.1422 81° East 461 531 39,000  Level Oakland Center
Mon 04:02:26 PM 38.3328 -118.9811 81° East 462 532 39,000  Level Oakland Center
Mon 04:03:27 PM 38.3519 -118.8175 81° East 466 536 39,000  Level Oakland Center
Mon 04:04:29 PM 38.3714 -118.6519 81° East 473 544 39,000  Level Oakland Center
Mon 04:05:30 PM 38.3900 -118.4878 82° East 470 541 39,000  Level Oakland Center
Mon 04:06:31 PM 38.4117 -118.2914 82° East 469 540 39,000  Level Oakland Center
Mon 04:07:32 PM 38.4306 -118.1256 82° East 474 545 39,000  Level Oakland Center
Mon 04:08:34 PM 38.4500 -117.9536 82° East 473 544 39,000  Level Oakland Center
Mon 04:09:35 PM 38.4681 -117.7858 82° East 474 545 39,000  Level Oakland Center
Mon 04:10:36 PM 38.4853 -117.6181 82° East 475 547 39,000  Level Oakland Center
Mon 04:11:38 PM 38.5031 -117.4503 82° East 474 545 39,000  Level Oakland Center
Mon 04:12:41 PM 38.5200 -117.2814 83° East 473 544 39,000  Level Salt Lake Center
Mon 04:13:40 PM 38.5161 -117.1092 92° East 479 551 39,000  Level Oakland Center
Mon 04:14:42 PM 38.5131 -116.9367 91° East 480 552 39,000  Level Oakland Center
Mon 04:15:43 PM 38.5086 -116.7650 92° East 481 554 39,000  Level Oakland Center
Mon 04:16:44 PM 38.5044 -116.5917 92° East 484 557 39,000  Level Oakland Center
Mon 04:17:46 PM 38.4994 -116.4206 92° East 483 556 39,000  Level Oakland Center
Mon 04:18:51 PM 38.4939 -116.2142 92° East 483 556 39,000  Level Salt Lake Center
Mon 04:19:52 PM 38.4894 -116.0417 92° East 485 558 39,000  Level Salt Lake Center
Mon 04:20:54 PM 38.4842 -115.8703 92° East 484 557 39,000  Level Salt Lake Center
Mon 04:21:55 PM 38.4792 -115.6972 92° East 486 559 39,000  Level Salt Lake Center
Mon 04:22:57 PM 38.4725 -115.5250 93° East 486 559 39,000  Level Salt Lake Center
Mon 04:23:58 PM 38.4669 -115.3372 92° East 484 557 39,000  Level Salt Lake Center
Mon 04:25:00 PM 38.4603 -115.1717 93° East 488 562 39,000  Level Salt Lake Center
Mon 04:26:01 PM 38.4542 -114.9994 93° East 487 560 39,000  Level Salt Lake Center
Mon 04:27:03 PM 38.4469 -114.8253 93° East 490 564 39,000  Level Salt Lake Center
Mon 04:28:04 PM 38.4389 -114.6511 93° East 493 567 39,000  Level Salt Lake Center
Mon 04:29:06 PM 38.4317 -114.4758 93° East 494 568 39,000  Level Salt Lake Center
Mon 04:30:07 PM 38.4242 -114.2622 92° East 499 574 39,000  Level Salt Lake Center
Mon 04:31:09 PM 38.4158 -114.0842 93° East 503 579 39,000  Level Salt Lake Center
Mon 04:32:10 PM 38.4069 -113.9067 94° East 502 578 39,000  Level Salt Lake Center
Mon 04:33:12 PM 38.3986 -113.7297 93° East 500 575 39,000  Level Salt Lake Center
Mon 04:34:13 PM 38.3900 -113.5531 94° East 500 575 39,000  Level Salt Lake Center
Mon 04:35:15 PM 38.3800 -113.3744 94° East 503 579 39,000  Level Salt Lake Center
Mon 04:36:17 PM 38.3714 -113.1964 93° East 503 579 39,000  Level Salt Lake Center
Mon 04:37:18 PM 38.3631 -113.0217 93° East 497 572 39,000  Level Salt Lake Center
Mon 04:38:20 PM 38.3911 -112.8475 78° East 497 572 39,000  Level Salt Lake Center
Mon 04:39:21 PM 38.4244 -112.6761 76° East 497 572 39,000  Level Salt Lake Center
Mon 04:40:23 PM 38.4619 -112.4667 77° East 502 578 39,000  Level Salt Lake Center
Mon 04:41:24 PM 38.4922 -112.2925 77° East 502 578 39,000  Level Salt Lake Center
Mon 04:42:26 PM 38.5244 -112.1192 77° East 502 578 39,000  Level Salt Lake Center
Mon 04:43:28 PM 38.5544 -111.9431 78° East 506 582 39,000  Level Salt Lake Center
Mon 04:44:29 PM 38.5858 -111.7722 77° East 498 573 39,000  Level Salt Lake Center
Mon 04:45:31 PM 38.6142 -111.5981 78° East 499 574 39,000  Level Salt Lake Center
Mon 04:46:32 PM 38.6458 -111.4244 77° East 501 577 39,000  Level Salt Lake Center
Mon 04:47:34 PM 38.6744 -111.2489 78° East 503 579 39,000  Level Salt Lake Center
Mon 04:48:35 PM 38.7097 -111.0428 78° East 498 573 39,000  Level Salt Lake Center
Mon 04:49:37 PM 38.7353 -110.8833 78° East 499 574 39,000  Level Salt Lake Center
Mon 04:50:38 PM 38.7675 -110.6881 78° East 501 577 39,000  Level Salt Lake Center
Mon 04:51:40 PM 38.7942 -110.5189 79° East 504 580 39,000  Level Salt Lake Center
Mon 04:52:41 PM 38.8219 -110.3478 78° East 510 587 39,000  Level Salt Lake Center
Mon 04:53:02 PM 38.8328 -110.2614 81° East 510 587 39,000  Level Denver Center
Mon 04:54:04 PM 38.8594 -110.0928 78° East 506 582 39,000  Level Denver Center
Mon 04:54:44 PM 38.8792 -109.9844 77° East 501 577 39,000  Level Salt Lake Center
Mon 04:55:46 PM 38.9083 -109.7933 79° East 491 565 39,000  Level Salt Lake Center
Mon 04:56:07 PM 38.9161 -109.7369 80° East 490 564 39,000  Level Denver Center
Mon 04:57:08 PM 38.9406 -109.5719 79° East 493 567 39,000  Level Denver Center
Mon 04:58:09 PM 38.9711 -109.3753 79° East 503 579 39,000  Level Denver Center
Mon 04:59:11 PM 38.9969 -109.2058 79° East 505 581 39,000  Level Denver Center
Mon 05:00:12 PM 39.0269 -109.0072 79° East 509 586 39,000  Level Denver Center
Mon 05:01:14 PM 39.0517 -108.8367 79° East 509 586 39,000  Level Denver Center
Mon 05:02:15 PM 39.0897 -108.6436 76° East 502 578 39,000  Level Denver Center
Mon 05:03:17 PM 39.1244 -108.4781 75° East 502 578 39,000  Level Denver Center
Mon 05:04:18 PM 39.1592 -108.3106 75° East 508 585 39,000  Level Denver Center
Mon 05:05:20 PM 39.1986 -108.1158 75° East 506 582 39,000  Level Denver Center
Mon 05:06:21 PM 39.2331 -107.9483 75° East 507 583 39,000  Level Denver Center
Mon 05:07:23 PM 39.2725 -107.7519 75° East 510 587 39,000  Level Denver Center
Mon 05:08:24 PM 39.3058 -107.5797 76° East 515 593 39,000  Level Denver Center
Mon 05:09:26 PM 39.3458 -107.3792 75° East 517 595 39,000  Level Denver Center
Mon 05:10:27 PM 39.3806 -107.2067 75° East 520 598 39,000  Level Denver Center
Mon 05:11:29 PM 39.4128 -107.0322 77° East 521 600 39,000  Level Denver Center
Mon 05:12:30 PM 39.4472 -106.8289 78° East 519 597 39,000  Level Denver Center
Mon 05:13:32 PM 39.4683 -106.6492 81° East 527 606 39,000  Level Denver Center
Mon 05:14:33 PM 39.4925 -106.4469 81° East 527 606 39,000  Level Denver Center
Mon 05:15:35 PM 39.5139 -106.2619 81° East 520 598 39,000  Level Denver Center
Mon 05:16:36 PM 39.5361 -106.0653 82° East 515 593 39,000  Level Denver Center
Mon 05:17:38 PM 39.5569 -105.8831 82° East 509 586 39,000  Level Denver Center
Mon 05:18:39 PM 39.5783 -105.6983 81° East 514 592 39,000  Level Denver Center
Mon 05:19:41 PM 39.5978 -105.5167 82° East 502 578 39,000  Level Denver Center
Mon 05:20:42 PM 39.6167 -105.3342 82° East 504 580 39,000  Level Denver Center
Mon 05:21:44 PM 39.6361 -105.1500 82° East 503 579 39,000  Level Denver Center
Mon 05:22:45 PM 39.6542 -104.9644 83° East 509 586 39,000  Level Denver Center
Mon 05:23:47 PM 39.6708 -104.7797 83° East 498 573 39,000  Level Denver Center
Mon 05:24:48 PM 39.6886 -104.5886 83° East 537 618 39,000  Level Denver Center
Mon 05:25:50 PM 39.6703 -104.4003 97° East 514 592 39,000  Level Denver Center
Mon 05:26:51 PM 39.6522 -104.2144 97° East 516 594 39,000  Level Denver Center
Mon 05:27:53 PM 39.6347 -104.0272 97° East 514 592 39,000  Level Denver Center
Mon 05:28:55 PM 39.6156 -103.8419 98° East 515 593 39,000  Level Denver Center
Mon 05:29:56 PM 39.5986 -103.6611 97° East 501 577 39,000  Level Denver Center
Mon 05:30:58 PM 39.5808 -103.4747 97° East 514 592 39,000  Level Denver Center
Mon 05:31:59 PM 39.5581 -103.2583 98° East 516 594 39,000  Level Denver Center
Mon 05:33:01 PM 39.5394 -103.0728 97° East 515 593 39,000  Level Denver Center
Mon 05:34:03 PM 39.5211 -102.8881 97° East 513 590 39,000  Level Denver Center
Mon 05:35:04 PM 39.5008 -102.7042 98° East 510 587 39,000  Level Denver Center
Mon 05:36:06 PM 39.4808 -102.5225 98° East 505 581 39,000  Level Denver Center
Mon 05:37:08 PM 39.4619 -102.3522 98° East 504 580 39,000  Level Denver Center
Mon 05:38:09 PM 39.4403 -102.1544 98° East 499 574 39,000  Level Denver Center
Mon 05:39:11 PM 39.4208 -101.9811 98° East 507 583 39,000  Level Denver Center
Mon 05:40:13 PM 39.3978 -101.7806 98° East 507 583 39,000  Level Denver Center
Mon 05:41:14 PM 39.3789 -101.6097 98° East 504 580 39,000  Level Denver Center
Mon 05:42:16 PM 39.3606 -101.4075 97° East 508 585 39,000  Level Denver Center
Mon 05:43:18 PM 39.3431 -101.2381 98° East 502 578 39,000  Level Denver Center
Mon 05:44:19 PM 39.3233 -101.0372 97° East 505 581 39,000  Level Denver Center
Mon 05:45:21 PM 39.3056 -100.8664 98° East 503 579 39,000  Level Denver Center
Mon 05:46:23 PM 39.2889 -100.6956 97° East 504 580 39,000  Level Denver Center
Mon 05:47:24 PM 39.2669 -100.4961 98° East 502 578 39,000  Level Denver Center
Mon 05:48:26 PM 39.2492 -100.3261 98° East 503 579 39,000 -484 Level Denver Center
Mon 05:49:28 PM 39.2275 -100.1267 98° East 503 579 38,000 -927 Descending Denver Center
Mon 05:50:29 PM 39.2086 -99.9600 98° East 505 581 37,100 -488 Descending Denver Center
Mon 05:51:31 PM 39.1864 -99.7528 98° East 518 596 37,000 -48 Descending Denver Center
Mon 05:52:33 PM 39.1664 -99.5806 98° East 512 589 37,000  Level Denver Center
Mon 05:53:35 PM 39.1428 -99.3792 99° East 509 586 37,000  Level Denver Center
Mon 05:54:36 PM 39.1222 -99.2061 99° East 509 586 37,000  Level Denver Center
Mon 05:55:38 PM 39.1017 -99.0336 99° East 510 587 37,000  Level Denver Center
Mon 05:56:40 PM 39.0792 -98.8414 99° East 513 590 37,000  Level Denver Center
Mon 05:57:20 PM 39.0667 -98.7344 99° East 512 589 37,000  Level Kansas City Center
Mon 05:58:20 PM 39.0439 -98.5519 99° East 515 593 37,000  Level Kansas City Center
Mon 05:59:21 PM 39.0214 -98.3711 99° East 512 589 37,000  Level Kansas City Center
Mon 06:00:25 PM 38.9933 -98.1539 99° East 513 590 37,000  Level Kansas City Center
Mon 06:01:26 PM 38.9700 -97.9728 99° East 512 589 37,000  Level Kansas City Center
Mon 06:02:29 PM 38.9497 -97.8036 99° East 510 587 37,000  Level Kansas City Center
Mon 06:03:30 PM 38.9233 -97.6033 100° East 510 587 37,000  Level Kansas City Center
Mon 06:04:30 PM 38.8900 -97.4356 104° East 513 590 37,000  Level Kansas City Center
Mon 06:05:34 PM 38.8547 -97.2578 104° East 514 592 37,000  Level Kansas City Center
Mon 06:06:35 PM 38.8200 -97.0806 104° East 512 589 37,000  Level Kansas City Center
Mon 06:07:36 PM 38.7847 -96.9025 104° East 514 592 37,000  Level Kansas City Center
Mon 06:08:40 PM 38.7419 -96.6900 104° East 513 590 37,000  Level Kansas City Center
Mon 06:09:41 PM 38.7033 -96.5056 105° East 509 586 37,000  Level Kansas City Center
Mon 06:10:45 PM 38.6692 -96.3392 105° East 507 583 37,000  Level Kansas City Center
Mon 06:11:45 PM 38.6297 -96.1458 105° East 506 582 37,000  Level Kansas City Center
Mon 06:12:49 PM 38.5950 -95.9792 105° East 507 583 37,000  Level Kansas City Center
Mon 06:13:49 PM 38.5603 -95.8142 105° East 505 581 37,000  Level Kansas City Center
Mon 06:14:50 PM 38.5194 -95.6225 105° East 506 582 37,000  Level Kansas City Center
Mon 06:15:54 PM 38.4847 -95.4564 105° East 507 583 37,000  Level Kansas City Center
Mon 06:16:55 PM 38.4431 -95.2631 105° East 508 585 37,000  Level Kansas City Center
Mon 06:17:59 PM 38.4081 -95.0983 105° East 506 582 37,000  Level Kansas City Center
Mon 06:18:59 PM 38.3650 -94.9050 106° East 510 587 37,000  Level Kansas City Center
Mon 06:19:59 PM 38.3289 -94.7400 106° East 509 586 37,000  Level Kansas City Center
Mon 06:21:03 PM 38.2858 -94.5464 106° East 509 586 37,000  Level Kansas City Center
Mon 06:22:04 PM 38.2911 -94.3772 88° East 507 583 37,000  Level Kansas City Center
Mon 06:23:05 PM 38.3222 -94.1850 78° East 501 577 37,000  Level Kansas City Center
Mon 06:24:08 PM 38.3486 -94.0244 78° East 499 574 37,000 -339 Level Kansas City Center
Mon 06:25:09 PM 38.3758 -93.8497 79° East 501 577 36,300 -885 Descending Kansas City Center
Mon 06:26:10 PM 38.4089 -93.6422 78° East 497 572 35,200 -1,000 Descending Kansas City Center
Mon 06:27:15 PM 38.4364 -93.4739 78° East 489 563 34,200 -952 Descending Kansas City Center
Mon 06:28:16 PM 38.4619 -93.3058 79° East 483 556 33,200 -934 Descending Kansas City Center
Mon 06:29:17 PM 38.4886 -93.1400 78° East 478 550 32,300 -934 Descending Kansas City Center
Mon 06:30:18 PM 38.5075 -92.9758 82° East 469 540 31,300 -912 Descending Kansas City Center
Mon 06:31:22 PM 38.5247 -92.8081 82° East 471 542 30,400 -912 Descending Kansas City Center
Mon 06:32:23 PM 38.5450 -92.6403 81° East 474 545 29,400 -984 Descending Kansas City Center
Mon 06:33:24 PM 38.5633 -92.4706 82° East 477 549 28,400 -1,008 Descending Kansas City Center
Mon 06:34:28 PM 38.5803 -92.3047 83° East 473 544 27,300 -1,839 Descending Kansas City Center
Mon 06:35:28 PM 38.6019 -92.1103 82° East 461 531 24,600 -2,479 Descending Kansas City Center
Mon 06:36:29 PM 38.6181 -91.9569 82° East 441 507 22,300 -2,146 Descending Kansas City Center
Mon 06:37:31 PM 38.6325 -91.8106 83° East 421 484 20,200 -1,952 Descending Kansas City Center
Mon 06:38:35 PM 38.6467 -91.6669 83° East 410 472 18,200 -2,069 Descending Kansas City Center
Mon 06:38:58 PM 38.6581 -91.5550 83° East 393 452 17,200 -2,591 Descending FAA TRACON SMA TRACON (SMA)
Mon 06:39:19 PM 38.6606 -91.5014 87° East 392 451 16,300 -2,250 Descending FAA TRACON SMA TRACON (SMA)
Mon 06:39:38 PM 38.6647 -91.4589 83° East 390 449 15,700 -2,000 Descending FAA TRACON SMA TRACON (SMA)
Mon 06:39:58 PM 38.6706 -91.4169 80° East 389 448 15,000 -2,250 Descending FAA TRACON SMA TRACON (SMA)
Mon 06:40:18 PM 38.6728 -91.3639 87° East 387 445 14,200 -2,250 Descending FAA TRACON SMA TRACON (SMA)
Mon 06:40:38 PM 38.6769 -91.3225 83° East 384 442 13,500 -2,049 Descending FAA TRACON SMA TRACON (SMA)
Mon 06:40:59 PM 38.6819 -91.2811 81° East 382 440 12,800 -2,195 Descending FAA TRACON SMA TRACON (SMA)
Mon 06:41:19 PM 38.6856 -91.2300 85° East 378 435 12,000 -2,154 Descending FAA TRACON SMA TRACON (SMA)
Mon 06:41:38 PM 38.6892 -91.1897 83° East 374 430 11,400 -1,692 Descending FAA TRACON SMA TRACON (SMA)
Mon 06:41:58 PM 38.6917 -91.1497 85° East 368 423 10,900 -750 Descending FAA TRACON SMA TRACON (SMA)
Mon 06:42:18 PM 38.6919 -91.1017 90° East 353 406 10,900  Level FAA TRACON SMA TRACON (SMA)
Mon 06:42:39 PM 38.6919 -91.0650 90° East 341 392 10,900 -439 Level FAA TRACON SMA TRACON (SMA)
Mon 06:42:59 PM 38.6986 -91.0306 76° East 327 376 10,600 -1,231 Descending FAA TRACON SMA TRACON (SMA)
Mon 06:43:18 PM 38.7094 -90.9978 67° East 326 375 10,100 -1,692 Descending FAA TRACON SMA TRACON (SMA)
Mon 06:43:38 PM 38.7211 -90.9564 70° East 321 369 9,500 -1,350 Descending FAA TRACON SMA TRACON (SMA)
Mon 06:43:58 PM 38.7314 -90.9244 68° East 318 366 9,200 -1,200 Descending FAA TRACON SMA TRACON (SMA)
Mon 06:44:18 PM 38.7428 -90.8850 70° East 312 359 8,700 -1,350 Descending FAA TRACON SMA TRACON (SMA)
Mon 06:44:38 PM 38.7533 -90.8539 66° East 307 353 8,300 -1,171 Descending FAA TRACON SMA TRACON (SMA)
Mon 06:44:59 PM 38.7631 -90.8231 68° East 304 350 7,900 -1,350 Descending FAA TRACON SMA TRACON (SMA)
Mon 06:45:18 PM 38.7717 -90.7931 70° East 299 344 7,400 -1,692 Descending FAA TRACON SMA TRACON (SMA)
Mon 06:45:38 PM 38.7836 -90.7564 67° East 293 337 6,800 -1,800 Descending FAA TRACON SMA TRACON (SMA)
Mon 06:45:58 PM 38.7928 -90.7272 68° East 291 335 6,200 -1,650 Descending FAA TRACON SMA TRACON (SMA)
Mon 06:46:18 PM 38.8033 -90.6983 65° Northeast 288 331 5,700 -1,756 Descending FAA TRACON SMA TRACON (SMA)
Mon 06:46:39 PM 38.8142 -90.6622 69° East 284 327 5,000 -1,610 Descending FAA TRACON SMA TRACON (SMA)
Mon 06:46:59 PM 38.8192 -90.6336 77° East 280 322 4,600 -923 Descending FAA TRACON SMA TRACON (SMA)
Mon 06:47:18 PM 38.8206 -90.6056 86° East 262 302 4,400 -615 Descending FAA TRACON SMA TRACON (SMA)
Mon 06:47:38 PM 38.8219 -90.5731 87° East 241 277 4,200 -600 Descending FAA TRACON SMA TRACON (SMA)
Mon 06:47:58 PM 38.8228 -90.5483 88° East 226 260 4,000 -750 Descending FAA TRACON SMA TRACON (SMA)
Mon 06:48:18 PM 38.8239 -90.5264 86° East 208 239 3,700 -1,317 Descending FAA TRACON SMA TRACON (SMA)
Mon 06:48:39 PM 38.8244 -90.4997 88° East 195 224 3,100 -1,317 Descending FAA TRACON SMA TRACON (SMA)
Mon 06:48:59 PM 38.8181 -90.4817 114° Southeast 187 215 2,800 -923 Descending FAA TRACON SMA TRACON (SMA)
Mon 06:49:18 PM 38.8103 -90.4658 122° Southeast 174 200 2,500 -947 Descending FAA TRACON SMA TRACON (SMA)

Login

Don't have an account? Register now (free) for customized features, flight alerts, and more!